createdAt,value
2018-09-23T00:00:40.018Z,100689.00
2018-09-23T00:03:09.463Z,100695.00
2018-09-23T00:05:39.534Z,100684.00
2018-09-23T00:11:11.461Z,100678.00
2018-09-23T00:20:14.634Z,100681.00
2018-09-23T00:23:14.752Z,100677.00
2018-09-23T00:28:44.094Z,100671.00
2018-09-23T00:31:13.445Z,100677.00
2018-09-23T00:34:30.094Z,100679.00
2018-09-23T00:37:19.084Z,100676.00
2018-09-23T00:40:11.879Z,100677.00
2018-09-23T00:46:47.158Z,100679.00
2018-09-23T00:49:16.526Z,100680.00
2018-09-23T00:51:53.601Z,100680.00
2018-09-23T00:54:30.095Z,100681.00
2018-09-23T00:57:06.819Z,100676.00
2018-09-23T00:59:36.835Z,100679.00
2018-09-23T01:02:06.477Z,100678.00
2018-09-23T01:04:48.273Z,100681.00
2018-09-23T01:07:17.991Z,100677.00
2018-09-23T01:12:40.136Z,100673.00
2018-09-23T01:15:13.191Z,100675.00
2018-09-23T01:17:42.840Z,100669.00
2018-09-23T01:20:22.407Z,100668.00
2018-09-23T01:22:52.392Z,100674.00
2018-09-23T01:25:23.257Z,100665.00
2018-09-23T01:27:53.671Z,100663.00
2018-09-23T01:30:23.127Z,100659.00
2018-09-23T01:32:54.328Z,100658.00
2018-09-23T01:35:57.480Z,100663.00
2018-09-23T01:38:54.740Z,100658.00
2018-09-23T01:41:24.438Z,100669.00
2018-09-23T01:43:57.223Z,100660.00
2018-09-23T01:46:26.590Z,100658.00
2018-09-23T01:48:56.566Z,100658.00
2018-09-23T01:51:25.918Z,100657.00
2018-09-23T01:57:34.592Z,100657.00
2018-09-23T02:00:03.964Z,100657.00
2018-09-23T02:02:57.800Z,100657.00
2018-09-23T02:08:28.973Z,100653.00
2018-09-23T02:10:58.433Z,100643.00
2018-09-23T02:13:27.891Z,100641.00
2018-09-23T02:15:57.079Z,100638.00
2018-09-23T02:18:27.308Z,100627.00
2018-09-23T02:20:57.262Z,100633.00
2018-09-23T02:23:28.136Z,100630.00
2018-09-23T02:26:03.532Z,100637.00
2018-09-23T02:28:34.094Z,100633.00
2018-09-23T02:35:57.861Z,100632.00
2018-09-23T02:38:31.683Z,100633.00
2018-09-23T02:41:01.085Z,100621.00
2018-09-23T02:43:30.487Z,100609.00
2018-09-23T02:46:01.862Z,100607.00
2018-09-23T02:48:31.677Z,100612.00
2018-09-23T02:51:00.962Z,100613.00
2018-09-23T02:53:40.668Z,100614.00
2018-09-23T02:56:10.476Z,100614.00
2018-09-23T02:58:40.263Z,100619.00
2018-09-23T03:01:09.895Z,100626.00
2018-09-23T03:03:39.426Z,100611.00
2018-09-23T03:06:47.124Z,100610.00
2018-09-23T03:09:38.983Z,100602.00
2018-09-23T03:14:52.901Z,100607.00
2018-09-23T03:17:22.370Z,100600.00
2018-09-23T03:19:51.784Z,100596.00
2018-09-23T03:22:22.253Z,100602.00
2018-09-23T03:24:52.023Z,100580.00
2018-09-23T03:28:37.578Z,100596.00
2018-09-23T03:31:07.152Z,100581.00
2018-09-23T03:34:12.347Z,100587.00
2018-09-23T03:37:26.769Z,100572.00
2018-09-23T03:40:15.007Z,100572.00
2018-09-23T03:48:51.418Z,100573.00
2018-09-23T03:51:20.570Z,100562.00
2018-09-23T03:53:49.748Z,100563.00
2018-09-23T03:56:18.913Z,100556.00
2018-09-23T03:59:35.833Z,100555.00
2018-09-23T04:02:04.995Z,100559.00
2018-09-23T04:05:30.757Z,100561.00
2018-09-23T04:07:59.837Z,100561.00
2018-09-23T04:10:29.004Z,100559.00
2018-09-23T04:12:58.076Z,100557.00
2018-09-23T04:15:27.288Z,100553.00
2018-09-23T04:17:56.369Z,100559.00
2018-09-23T04:23:22.725Z,100543.00
2018-09-23T04:25:51.884Z,100541.00
2018-09-23T04:31:09.113Z,100531.00
2018-09-23T04:33:38.290Z,100518.00
2018-09-23T04:36:07.463Z,100528.00
2018-09-23T04:38:36.578Z,100519.00
2018-09-23T04:41:05.752Z,100518.00
2018-09-23T04:43:34.877Z,100523.00
2018-09-23T04:46:30.168Z,100529.00
2018-09-23T04:52:06.272Z,100534.00
2018-09-23T04:54:35.344Z,100531.00
2018-09-23T04:57:28.594Z,100528.00
2018-09-23T05:00:31.678Z,100523.00
2018-09-23T05:03:00.857Z,100522.00
2018-09-23T05:05:30.083Z,100524.00
2018-09-23T05:07:59.280Z,100524.00
2018-09-23T05:10:28.439Z,100518.00
2018-09-23T05:12:57.630Z,100523.00
2018-09-23T05:16:16.089Z,100515.00
2018-09-23T05:18:46.401Z,100517.00
2018-09-23T05:21:15.455Z,100522.00
2018-09-23T05:23:44.483Z,100522.00
2018-09-23T05:26:13.575Z,100524.00
2018-09-23T05:28:42.861Z,100525.00
2018-09-23T05:31:11.945Z,100532.00
2018-09-23T05:33:41.053Z,100524.00
2018-09-23T05:36:10.158Z,100526.00
2018-09-23T05:38:39.234Z,100525.00
2018-09-23T05:41:37.141Z,100520.00
2018-09-23T05:44:07.071Z,100520.00
2018-09-23T05:46:36.115Z,100520.00
2018-09-23T05:49:05.317Z,100518.00
2018-09-23T05:51:34.436Z,100516.00
2018-09-23T05:54:05.360Z,100519.00
2018-09-23T05:56:34.561Z,100515.00
2018-09-23T06:01:53.838Z,100523.00
2018-09-23T06:04:23.009Z,100520.00
2018-09-23T06:06:52.131Z,100525.00
2018-09-23T06:11:59.106Z,100530.00
2018-09-23T06:14:28.205Z,100531.00
2018-09-23T06:17:20.670Z,100520.00
2018-09-23T06:19:49.800Z,100512.00
2018-09-23T06:22:18.845Z,100512.00
2018-09-23T06:25:18.464Z,100517.00
2018-09-23T06:27:50.106Z,100519.00
2018-09-23T06:33:28.251Z,100520.00
2018-09-23T06:36:11.762Z,100523.00
2018-09-23T06:38:44.314Z,100513.00
2018-09-23T06:41:17.064Z,100508.00
2018-09-23T06:43:46.241Z,100507.00
2018-09-23T06:46:15.391Z,100513.00
2018-09-23T06:48:44.573Z,100510.00
2018-09-23T06:51:14.960Z,100503.00
2018-09-23T06:53:44.090Z,100512.00
2018-09-23T06:56:13.758Z,100520.00
2018-09-23T06:58:42.850Z,100524.00
2018-09-23T07:01:12.157Z,100519.00
2018-09-23T07:03:41.225Z,100520.00
2018-09-23T07:06:10.314Z,100515.00
2018-09-23T07:08:39.660Z,100516.00
2018-09-23T07:14:11.473Z,100514.00
2018-09-23T07:16:51.820Z,100512.00
2018-09-23T07:23:01.310Z,100501.00
2018-09-23T07:28:36.724Z,100512.00
2018-09-23T07:34:15.831Z,100492.00
2018-09-23T07:36:45.338Z,100374.00
2018-09-23T07:39:24.341Z,100518.00
2018-09-23T07:41:53.569Z,100526.00
2018-09-23T07:44:23.820Z,100523.00
2018-09-23T07:46:54.042Z,100518.00
2018-09-23T07:49:24.673Z,100508.00
2018-09-23T07:51:56.873Z,100517.00
2018-09-23T07:54:26.324Z,100513.00
2018-09-23T08:00:13.704Z,100501.00
2018-09-23T08:02:42.980Z,100497.00
2018-09-23T08:05:26.535Z,100492.00
2018-09-23T08:08:13.191Z,100478.00
2018-09-23T08:11:01.061Z,100476.00
2018-09-23T08:13:32.352Z,100494.00
2018-09-23T08:16:01.578Z,100488.00
2018-09-23T08:21:36.860Z,100488.00
2018-09-23T08:24:05.994Z,100490.00
2018-09-23T08:26:35.193Z,100477.00
2018-09-23T08:29:06.369Z,100476.00
2018-09-23T08:31:36.070Z,100485.00
2018-09-23T08:34:29.452Z,100481.00
2018-09-23T08:42:58.650Z,100485.00
2018-09-23T08:48:43.701Z,100476.00
2018-09-23T08:51:13.045Z,100473.00
2018-09-23T08:53:51.474Z,100476.00
2018-09-23T08:56:20.664Z,100481.00
2018-09-23T09:02:39.699Z,100474.00
2018-09-23T09:05:09.026Z,100459.00
2018-09-23T09:07:38.815Z,100450.00
2018-09-23T09:10:10.022Z,100441.00
2018-09-23T09:12:39.700Z,100433.00
2018-09-23T09:15:10.010Z,100436.00
2018-09-23T09:17:39.570Z,100439.00
2018-09-23T09:20:16.605Z,100430.00
2018-09-23T09:23:08.087Z,100440.00
2018-09-23T09:26:25.496Z,100428.00
2018-09-23T09:29:10.021Z,100422.00
2018-09-23T09:38:50.886Z,100417.00
2018-09-23T09:41:20.207Z,100424.00
2018-09-23T09:43:50.002Z,100427.00
2018-09-23T09:46:19.552Z,100417.00
2018-09-23T09:48:48.710Z,100408.00
2018-09-23T09:51:18.192Z,100395.00
2018-09-23T09:53:47.387Z,100401.00
2018-09-23T09:56:16.640Z,100395.00
2018-09-23T09:58:46.850Z,100409.00
2018-09-23T10:01:16.258Z,100393.00
2018-09-23T10:03:45.749Z,100384.00
2018-09-23T10:06:14.976Z,100379.00
2018-09-23T10:08:46.552Z,100377.00
2018-09-23T10:11:17.185Z,100366.00
2018-09-23T10:13:47.178Z,100358.00
2018-09-23T10:16:16.876Z,100365.00
2018-09-23T10:18:46.681Z,100355.00
2018-09-23T10:21:16.822Z,100361.00
2018-09-23T10:23:46.518Z,100352.00
2018-09-23T10:26:15.652Z,100356.00
2018-09-23T10:28:45.052Z,100342.00
2018-09-23T10:31:14.374Z,100337.00
2018-09-23T10:33:43.554Z,100339.00
2018-09-23T10:36:12.741Z,100346.00
2018-09-23T10:38:41.900Z,100339.00
2018-09-23T10:41:18.901Z,100338.00
2018-09-23T10:43:49.513Z,100350.00
2018-09-23T10:48:57.344Z,100353.00
2018-09-23T10:51:26.799Z,100347.00
2018-09-23T10:53:56.102Z,100336.00
2018-09-23T10:56:25.469Z,100349.00
2018-09-23T10:58:55.387Z,100359.00
2018-09-23T11:01:27.650Z,100355.00
2018-09-23T11:03:57.092Z,100357.00
2018-09-23T11:06:26.094Z,100358.00
2018-09-23T11:08:55.354Z,100360.00
2018-09-23T11:11:25.136Z,100356.00
2018-09-23T11:13:54.305Z,100342.00
2018-09-23T11:16:24.211Z,100340.00
2018-09-23T11:18:53.469Z,100336.00
2018-09-23T11:21:22.583Z,100321.00
2018-09-23T11:23:51.750Z,100313.00
2018-09-23T11:26:26.823Z,100308.00
2018-09-23T11:28:59.594Z,100292.00
2018-09-23T11:31:28.736Z,100283.00
2018-09-23T11:33:57.860Z,100263.00
2018-09-23T11:36:26.967Z,100255.00
2018-09-23T11:38:56.707Z,100258.00
2018-09-23T11:41:25.959Z,100263.00
2018-09-23T11:44:00.517Z,100253.00
2018-09-23T11:46:33.399Z,100266.00
2018-09-23T11:49:03.313Z,100246.00
2018-09-23T11:51:32.761Z,100240.00
2018-09-23T11:54:02.010Z,100237.00
2018-09-23T11:56:31.213Z,100234.00
2018-09-23T11:59:00.651Z,100247.00
2018-09-23T12:01:29.754Z,100258.00
2018-09-23T12:03:59.756Z,100252.00
2018-09-23T12:06:29.057Z,100248.00
2018-09-23T12:08:58.168Z,100247.00
2018-09-23T12:11:34.680Z,100246.00
2018-09-23T12:14:03.907Z,100244.00
2018-09-23T12:16:33.140Z,100251.00
2018-09-23T12:19:02.481Z,100258.00
2018-09-23T12:21:31.639Z,100257.00
2018-09-23T12:24:00.732Z,100257.00
2018-09-23T12:26:29.828Z,100271.00
2018-09-23T12:29:09.664Z,100261.00
2018-09-23T12:31:39.684Z,100263.00
2018-09-23T12:34:09.611Z,100262.00
2018-09-23T12:36:39.941Z,100248.00
2018-09-23T12:39:13.436Z,100251.00
2018-09-23T12:41:42.711Z,100258.00
2018-09-23T12:44:12.013Z,100251.00
2018-09-23T12:46:41.290Z,100236.00
2018-09-23T12:49:10.660Z,100240.00
2018-09-23T12:51:40.409Z,100246.00
2018-09-23T12:54:10.035Z,100236.00
2018-09-23T12:56:39.442Z,100233.00
2018-09-23T12:59:08.775Z,100222.00
2018-09-23T13:01:43.798Z,100206.00
2018-09-23T13:04:13.017Z,100216.00
2018-09-23T13:06:42.151Z,100201.00
2018-09-23T13:09:11.263Z,100177.00
2018-09-23T13:11:55.498Z,100173.00
2018-09-23T13:14:24.642Z,100190.00
2018-09-23T13:17:00.888Z,100191.00
2018-09-23T13:19:30.091Z,100156.00
2018-09-23T13:22:00.805Z,100173.00
2018-09-23T13:24:29.914Z,100178.00
2018-09-23T13:27:02.031Z,100162.00
2018-09-23T13:29:31.195Z,100164.00
2018-09-23T13:32:00.431Z,100184.00
2018-09-23T13:34:29.486Z,100162.00
2018-09-23T13:36:59.233Z,100122.00
2018-09-23T13:39:28.565Z,100094.00
2018-09-23T13:41:58.281Z,100108.00
2018-09-23T13:44:27.479Z,100140.00
2018-09-23T13:46:56.814Z,100151.00
2018-09-23T13:49:26.349Z,100161.00
2018-09-23T13:51:56.324Z,100129.00
2018-09-23T13:57:21.014Z,100130.00
2018-09-23T13:59:51.666Z,100152.00
2018-09-23T14:02:22.492Z,100145.00
2018-09-23T14:04:52.366Z,100131.00
2018-09-23T14:10:24.011Z,100121.00
2018-09-23T14:12:53.663Z,100132.00
2018-09-23T14:15:23.745Z,100147.00
2018-09-23T14:17:58.932Z,100129.00
2018-09-23T14:20:28.242Z,100134.00
2018-09-23T14:23:27.395Z,100157.00
2018-09-23T14:25:59.962Z,100146.00
2018-09-23T14:28:29.438Z,100130.00
2018-09-23T14:30:58.995Z,100126.00
2018-09-23T14:33:57.366Z,100132.00
2018-09-23T14:39:04.893Z,100113.00
2018-09-23T14:41:34.122Z,100123.00
2018-09-23T14:44:03.337Z,100112.00
2018-09-23T14:46:32.881Z,100136.00
2018-09-23T14:49:03.139Z,100171.00
2018-09-23T14:51:32.721Z,100168.00
2018-09-23T14:54:01.961Z,100166.00
2018-09-23T14:56:32.122Z,100169.00
2018-09-23T14:59:01.464Z,100183.00
2018-09-23T15:01:30.692Z,100162.00
2018-09-23T15:03:59.844Z,100163.00
2018-09-23T15:06:29.121Z,100168.00
2018-09-23T15:08:58.202Z,100167.00
2018-09-23T15:11:33.809Z,100159.00
2018-09-23T15:14:03.008Z,100166.00
2018-09-23T15:16:32.413Z,100178.00
2018-09-23T15:19:01.634Z,100176.00
2018-09-23T15:21:30.967Z,100182.00
2018-09-23T15:24:00.112Z,100190.00
2018-09-23T15:26:29.270Z,100191.00
2018-09-23T15:28:58.479Z,100190.00
2018-09-23T15:31:28.291Z,100189.00
2018-09-23T15:33:57.382Z,100169.00
2018-09-23T15:36:26.522Z,100159.00
2018-09-23T15:38:55.626Z,100145.00
2018-09-23T15:41:24.756Z,100150.00
2018-09-23T15:46:49.972Z,100155.00
2018-09-23T15:49:19.071Z,100147.00
2018-09-23T15:51:48.257Z,100149.00
2018-09-23T15:54:17.385Z,100159.00
2018-09-23T15:56:48.508Z,100155.00
2018-09-23T15:59:17.892Z,100153.00
2018-09-23T16:02:19.210Z,100155.00
2018-09-23T16:04:48.505Z,100162.00
2018-09-23T16:07:17.793Z,100170.00
2018-09-23T16:09:47.249Z,100172.00
2018-09-23T16:12:16.698Z,100174.00
2018-09-23T16:14:46.087Z,100172.00
2018-09-23T16:17:15.280Z,100167.00
2018-09-23T16:19:44.533Z,100172.00
2018-09-23T16:22:15.335Z,100169.00
2018-09-23T16:24:44.556Z,100173.00
2018-09-23T16:27:13.827Z,100173.00
2018-09-23T16:29:43.121Z,100175.00
2018-09-23T16:32:15.017Z,100172.00
2018-09-23T16:34:44.238Z,100180.00
2018-09-23T16:37:13.358Z,100180.00
2018-09-23T16:39:42.448Z,100178.00
2018-09-23T16:42:11.593Z,100169.00
2018-09-23T16:44:40.625Z,100176.00
2018-09-23T16:47:09.693Z,100171.00
2018-09-23T16:49:38.751Z,100181.00
2018-09-23T16:52:07.869Z,100191.00
2018-09-23T16:54:37.500Z,100195.00
2018-09-23T16:57:06.634Z,100187.00
2018-09-23T16:59:35.889Z,100194.00
2018-09-23T17:02:05.022Z,100194.00
2018-09-23T17:04:34.533Z,100190.00
2018-09-23T17:07:03.797Z,100201.00
2018-09-23T17:12:14.970Z,100197.00
2018-09-23T17:14:44.080Z,100202.00
2018-09-23T17:17:13.306Z,100210.00
2018-09-23T17:19:42.387Z,100212.00
2018-09-23T17:22:11.829Z,100227.00
2018-09-23T17:24:41.012Z,100239.00
2018-09-23T17:29:52.673Z,100238.00
2018-09-23T17:32:21.853Z,100247.00
2018-09-23T17:34:51.046Z,100255.00
2018-09-23T17:37:20.195Z,100261.00
2018-09-23T17:39:50.211Z,100268.00
2018-09-23T17:42:19.323Z,100268.00
2018-09-23T17:44:48.391Z,100262.00
2018-09-23T17:47:32.693Z,100269.00
2018-09-23T17:50:02.136Z,100290.00
2018-09-23T17:52:31.659Z,100288.00
2018-09-23T17:55:01.179Z,100288.00
2018-09-23T17:57:30.980Z,100300.00
2018-09-23T18:00:02.084Z,100305.00
2018-09-23T18:16:31.482Z,100350.00
2018-09-23T18:19:01.888Z,100340.00
2018-09-23T18:21:31.175Z,100338.00
2018-09-23T18:24:57.304Z,100349.00
2018-09-23T18:27:26.677Z,100351.00
2018-09-23T18:29:56.051Z,100357.00
2018-09-23T18:32:25.177Z,100355.00
2018-09-23T18:35:07.352Z,100357.00
2018-09-23T18:37:49.485Z,100364.00
2018-09-23T18:40:18.741Z,100374.00
2018-09-23T18:42:47.860Z,100373.00
2018-09-23T18:45:17.125Z,100334.00
2018-09-23T18:47:46.448Z,100384.00
2018-09-23T18:50:15.722Z,100391.00
2018-09-23T18:52:45.089Z,100390.00
2018-09-23T18:55:19.409Z,100393.00
2018-09-23T18:57:48.625Z,100405.00
2018-09-23T19:00:47.799Z,100405.00
2018-09-23T19:03:17.055Z,100412.00
2018-09-23T19:05:46.339Z,100418.00
2018-09-23T19:08:15.819Z,100424.00
2018-09-23T19:10:45.837Z,100428.00
2018-09-23T19:13:20.398Z,100430.00
2018-09-23T19:15:55.096Z,100440.00
2018-09-23T19:18:24.169Z,100446.00
2018-09-23T19:20:53.418Z,100448.00
2018-09-23T19:23:22.668Z,100444.00
2018-09-23T19:25:51.804Z,100448.00
2018-09-23T19:28:21.050Z,100447.00
2018-09-23T19:30:50.362Z,100459.00
2018-09-23T19:33:19.536Z,100463.00
2018-09-23T19:35:48.679Z,100473.00
2018-09-23T19:38:17.990Z,100472.00
2018-09-23T19:40:47.218Z,100481.00
2018-09-23T19:43:16.540Z,100490.00
2018-09-23T19:45:45.759Z,100487.00
2018-09-23T19:48:14.990Z,100494.00
2018-09-23T19:50:49.185Z,100501.00
2018-09-23T19:53:18.866Z,100515.00
2018-09-23T19:55:48.125Z,100517.00
2018-09-23T19:58:18.267Z,100530.00
2018-09-23T20:01:21.365Z,100530.00
2018-09-23T20:03:52.963Z,100540.00
2018-09-23T20:06:22.597Z,100534.00
2018-09-23T20:08:53.082Z,100541.00
2018-09-23T20:11:25.921Z,100550.00
2018-09-23T20:14:02.791Z,100560.00
2018-09-23T20:16:31.960Z,100557.00
2018-09-23T20:19:28.927Z,100561.00
2018-09-23T20:21:58.698Z,100575.00
2018-09-23T20:27:33.637Z,100583.00
2018-09-23T20:30:03.231Z,100592.00
2018-09-23T20:32:32.386Z,100600.00
2018-09-23T20:35:01.664Z,100598.00
2018-09-23T20:37:38.659Z,100606.00
2018-09-23T20:40:07.870Z,100604.00
2018-09-23T20:42:37.211Z,100607.00
2018-09-23T20:45:06.891Z,100614.00
2018-09-23T20:47:40.790Z,100616.00
2018-09-23T20:50:10.606Z,100627.00
2018-09-23T20:52:39.818Z,100628.00
2018-09-23T20:55:09.058Z,100632.00
2018-09-23T20:57:38.212Z,100642.00
2018-09-23T21:00:08.032Z,100648.00
2018-09-23T21:02:37.175Z,100649.00
2018-09-23T21:05:06.751Z,100658.00
2018-09-23T21:07:35.931Z,100664.00
2018-09-23T21:10:05.373Z,100657.00
2018-09-23T21:12:34.548Z,100663.00
2018-09-23T21:15:05.308Z,100673.00
2018-09-23T21:17:35.617Z,100679.00
2018-09-23T21:20:05.514Z,100693.00
2018-09-23T21:22:34.748Z,100686.00
2018-09-23T21:25:04.351Z,100701.00
2018-09-23T21:27:33.704Z,100708.00
2018-09-23T21:30:03.082Z,100702.00
2018-09-23T21:32:32.335Z,100698.00
2018-09-23T21:35:01.515Z,100708.00
2018-09-23T21:37:30.869Z,100710.00
2018-09-23T21:40:00.004Z,100718.00
2018-09-23T21:42:29.143Z,100716.00
2018-09-23T21:44:58.331Z,100723.00
2018-09-23T21:47:27.721Z,100729.00
2018-09-23T21:49:56.781Z,100743.00
2018-09-23T21:52:25.894Z,100743.00
2018-09-23T21:54:55.066Z,100739.00
2018-09-23T21:57:24.700Z,100748.00
2018-09-23T22:02:40.337Z,100746.00
2018-09-23T22:05:10.072Z,100766.00
2018-09-23T22:07:39.307Z,100766.00
2018-09-23T22:10:08.518Z,100770.00
2018-09-23T22:12:37.588Z,100771.00
2018-09-23T22:15:10.940Z,100776.00
2018-09-23T22:17:42.326Z,100783.00
2018-09-23T22:20:11.426Z,100780.00
2018-09-23T22:22:40.556Z,100794.00
2018-09-23T22:25:09.811Z,100793.00
2018-09-23T22:27:39.054Z,100794.00
2018-09-23T22:30:09.566Z,100794.00
2018-09-23T22:32:38.696Z,100807.00
2018-09-23T22:35:08.707Z,100814.00
2018-09-23T22:37:47.124Z,100805.00
2018-09-23T22:40:17.360Z,100812.00
2018-09-23T22:42:46.582Z,100806.00
2018-09-23T22:45:15.817Z,100816.00
2018-09-23T22:47:47.109Z,100820.00
2018-09-23T22:50:16.863Z,100825.00
2018-09-23T22:52:49.305Z,100833.00
2018-09-23T22:55:20.149Z,100831.00
2018-09-23T22:57:49.574Z,100835.00
2018-09-23T23:00:18.820Z,100846.00
2018-09-23T23:02:48.075Z,100863.00
2018-09-23T23:05:17.252Z,100854.00
2018-09-23T23:07:47.437Z,100866.00
2018-09-23T23:10:16.614Z,100856.00
2018-09-23T23:12:45.842Z,100857.00
2018-09-23T23:15:14.974Z,100864.00
2018-09-23T23:17:44.026Z,100867.00
2018-09-23T23:20:13.192Z,100873.00
2018-09-23T23:22:42.263Z,100879.00
2018-09-23T23:25:11.392Z,100891.00
2018-09-23T23:27:40.443Z,100889.00
2018-09-23T23:33:10.230Z,100912.00
2018-09-23T23:35:39.414Z,100914.00
2018-09-23T23:38:08.578Z,100910.00
2018-09-23T23:40:37.812Z,100916.00
2018-09-23T23:43:07.016Z,100921.00
2018-09-23T23:45:36.212Z,100929.00
2018-09-23T23:48:05.334Z,100926.00
2018-09-23T23:50:34.546Z,100930.00
2018-09-23T23:53:03.640Z,100934.00
2018-09-23T23:55:32.826Z,100942.00
2018-09-23T23:58:02.111Z,100943.00
